Time;durP1;ratioP1;P1;durP2;ratioP2;P2;SDS_P1;SDS_P2;PMS_P1;PMS_P2;Temp;Humidity;BMP_temperature;BMP_pressure;BME280_temperature;BME280_humidity;BME280_pressure;Samples;Min_cycle;Max_cycle;Signal;HPM_P1;HPM_P2
2023/08/24 00:00:14;;;;;;;18.07;8.07;;;;;;;;;;5056957;28;20556;-60
2023/08/24 00:02:40;;;;;;;17.50;8.20;;;;;;;;;;5050167;28;20048;-60
2023/08/24 00:05:06;;;;;;;29.93;7.60;;;;;;;;;;5050761;28;20102;-60
2023/08/24 00:07:32;;;;;;;9.00;5.53;;;;;;;;;;5050612;28;20045;-60
2023/08/24 00:09:58;;;;;;;9.77;5.27;;;;;;;;;;5049722;28;20041;-60
2023/08/24 00:12:25;;;;;;;5.90;4.63;;;;;;;;;;5050013;28;20507;-60
2023/08/24 00:14:52;;;;;;;5.77;3.73;;;;;;;;;;5050640;28;20061;-61
2023/08/24 00:17:18;;;;;;;5.63;3.97;;;;;;;;;;5050086;28;20483;-60
2023/08/24 00:19:43;;;;;;;7.50;5.83;;;;;;;;;;5050341;28;20048;-60
2023/08/24 00:22:09;;;;;;;11.20;6.90;;;;;;;;;;5049698;28;20048;-60
2023/08/24 00:24:35;;;;;;;8.10;6.30;;;;;;;;;;5049806;28;20051;-60
2023/08/24 00:27:01;;;;;;;8.73;6.37;;;;;;;;;;5049676;28;20545;-60
2023/08/24 00:29:27;;;;;;;10.67;7.30;;;;;;;;;;5049447;28;20063;-60
2023/08/24 00:31:53;;;;;;;11.73;7.20;;;;;;;;;;5050042;28;20041;-60
2023/08/24 00:34:19;;;;;;;11.67;8.50;;;;;;;;;;5049340;28;20049;-60
2023/08/24 00:36:45;;;;;;;10.00;6.27;;;;;;;;;;5049906;28;20069;-60
2023/08/24 00:39:11;;;;;;;5.53;3.43;;;;;;;;;;5050057;28;20080;-60
2023/08/24 00:41:37;;;;;;;51.27;4.80;;;;;;;;;;5048444;28;20098;-60
2023/08/24 00:44:04;;;;;;;70.97;5.67;;;;;;;;;;5049729;28;20049;-60
2023/08/24 00:46:29;;;;;;;28.23;5.00;;;;;;;;;;5049088;28;20358;-60
2023/08/24 00:48:58;;;;;;;28.80;7.20;;;;;;;;;;5049523;28;20457;-60
2023/08/24 00:51:25;;;;;;;8.27;5.53;;;;;;;;;;5051252;28;20470;-60
2023/08/24 00:53:51;;;;;;;15.30;10.83;;;;;;;;;;5067499;28;20410;-60
2023/08/24 00:56:19;;;;;;;14.53;10.93;;;;;;;;;;5050858;28;20090;-60
2023/08/24 00:58:47;;;;;;;14.00;9.97;;;;;;;;;;5048694;28;20040;-60
2023/08/24 01:01:13;;;;;;;13.60;8.60;;;;;;;;;;5049436;28;20070;-60
2023/08/24 01:03:39;;;;;;;14.97;9.47;;;;;;;;;;5049186;28;20048;-60
2023/08/24 01:06:05;;;;;;;17.87;10.47;;;;;;;;;;5049455;28;20123;-60
2023/08/24 01:08:31;;;;;;;17.20;11.03;;;;;;;;;;5049113;28;20569;-60
2023/08/24 01:10:57;;;;;;;14.50;9.03;;;;;;;;;;5048564;28;20057;-60
2023/08/24 01:13:31;;;;;;;13.60;8.90;;;;;;;;;;5048875;28;20418;-60
2023/08/24 01:16:09;;;;;;;13.53;8.60;;;;;;;;;;5048837;28;20070;-60
2023/08/24 01:18:36;;;;;;;20.53;11.93;;;;;;;;;;5050908;28;20460;-60
2023/08/24 01:21:03;;;;;;;20.13;10.27;;;;;;;;;;5059926;28;20445;-60
2023/08/24 01:23:43;;;;;;;22.43;14.07;;;;;;;;;;5062405;28;20071;-60
2023/08/24 01:26:20;;;;;;;15.87;11.60;;;;;;;;;;5048446;28;20062;-60
2023/08/24 01:28:47;;;;;;;20.27;11.23;;;;;;;;;;5046827;28;20068;-60
2023/08/24 01:31:15;;;;;;;17.33;10.03;;;;;;;;;;5048889;28;20047;-60
2023/08/24 01:33:41;;;;;;;20.60;12.13;;;;;;;;;;5063953;28;20056;-62
2023/08/24 01:36:08;;;;;;;17.60;11.30;;;;;;;;;;5068531;28;20051;-62
2023/08/24 01:38:34;;;;;;;16.07;10.77;;;;;;;;;;5068678;28;20056;-62
2023/08/24 01:41:12;;;;;;;15.67;10.47;;;;;;;;;;5068629;28;20048;-62
2023/08/24 01:43:39;;;;;;;21.20;12.53;;;;;;;;;;5068314;28;20517;-62
2023/08/24 01:46:07;;;;;;;19.87;11.77;;;;;;;;;;5068919;28;20049;-63
2023/08/24 01:48:33;;;;;;;21.90;14.07;;;;;;;;;;5068794;28;20040;-62
2023/08/24 01:51:00;;;;;;;19.70;14.17;;;;;;;;;;5067887;28;20056;-62
2023/08/24 01:53:26;;;;;;;22.87;12.93;;;;;;;;;;5068685;28;20458;-62
2023/08/24 01:55:53;;;;;;;23.53;13.90;;;;;;;;;;5067215;28;20048;-62
2023/08/24 01:58:19;;;;;;;23.23;13.40;;;;;;;;;;5048048;28;20041;-60
2023/08/24 02:00:45;;;;;;;21.37;13.70;;;;;;;;;;5048245;28;20452;-60
2023/08/24 02:03:11;;;;;;;21.00;12.37;;;;;;;;;;5048470;28;20388;-60
2023/08/24 02:05:37;;;;;;;24.53;13.97;;;;;;;;;;5048297;28;20053;-60
2023/08/24 02:08:03;;;;;;;22.17;14.03;;;;;;;;;;5048447;28;20049;-60
2023/08/24 02:10:29;;;;;;;22.73;13.37;;;;;;;;;;5048568;28;20041;-59
2023/08/24 02:12:55;;;;;;;27.17;13.63;;;;;;;;;;5048160;28;20130;-60
2023/08/24 02:15:21;;;;;;;25.13;14.93;;;;;;;;;;5051948;28;20048;-60
2023/08/24 02:17:47;;;;;;;23.63;13.90;;;;;;;;;;5048511;28;20052;-60
2023/08/24 02:20:13;;;;;;;25.70;13.97;;;;;;;;;;5048128;28;20041;-60
2023/08/24 02:22:39;;;;;;;21.23;14.07;;;;;;;;;;5047462;28;20518;-60
2023/08/24 02:25:06;;;;;;;18.07;13.33;;;;;;;;;;5048180;28;20048;-60
2023/08/24 02:27:32;;;;;;;18.70;11.73;;;;;;;;;;5047783;28;20082;-60
2023/08/24 02:29:58;;;;;;;25.33;13.50;;;;;;;;;;5047747;28;20442;-60
2023/08/24 02:32:24;;;;;;;17.00;11.83;;;;;;;;;;5047995;28;20044;-60
2023/08/24 02:34:51;;;;;;;22.47;14.13;;;;;;;;;;5047526;28;20037;-60
2023/08/24 02:37:17;;;;;;;20.67;12.93;;;;;;;;;;5048222;28;20416;-60
2023/08/24 02:39:43;;;;;;;24.83;14.20;;;;;;;;;;5047600;28;20052;-60
2023/08/24 02:42:09;;;;;;;25.97;14.37;;;;;;;;;;5048149;28;20045;-60
2023/08/24 02:44:35;;;;;;;22.77;13.17;;;;;;;;;;5047658;28;20041;-60
2023/08/24 02:47:01;;;;;;;24.73;13.80;;;;;;;;;;5047703;28;20095;-60
2023/08/24 02:49:27;;;;;;;22.57;13.50;;;;;;;;;;5048133;28;20491;-60
2023/08/24 02:51:53;;;;;;;23.80;13.27;;;;;;;;;;5047356;28;20169;-60
2023/08/24 02:54:19;;;;;;;22.67;13.70;;;;;;;;;;5047647;28;20044;-60
2023/08/24 02:56:45;;;;;;;26.17;14.00;;;;;;;;;;5048016;28;20037;-60
2023/08/24 02:59:11;;;;;;;23.03;13.43;;;;;;;;;;5048086;28;20047;-59
2023/08/24 03:01:38;;;;;;;28.90;14.80;;;;;;;;;;5047640;28;20044;-60
2023/08/24 03:04:05;;;;;;;18.33;13.57;;;;;;;;;;5047170;28;20056;-60
2023/08/24 03:06:31;;;;;;;20.40;13.13;;;;;;;;;;5050295;28;20091;-60
2023/08/24 03:08:57;;;;;;;27.73;13.60;;;;;;;;;;5070786;28;20083;-60
2023/08/24 03:11:23;;;;;;;22.73;13.37;;;;;;;;;;5062132;28;20349;-60
2023/08/24 03:13:49;;;;;;;23.53;13.47;;;;;;;;;;5051321;28;20507;-60
2023/08/24 03:16:15;;;;;;;28.00;14.77;;;;;;;;;;5051062;28;20049;-60
2023/08/24 03:18:41;;;;;;;28.67;14.60;;;;;;;;;;5050904;28;20518;-60
2023/08/24 03:21:07;;;;;;;28.83;15.20;;;;;;;;;;5051046;28;20044;-60
2023/08/24 03:23:33;;;;;;;27.37;14.00;;;;;;;;;;5051169;28;20056;-60
2023/08/24 03:25:59;;;;;;;22.67;14.23;;;;;;;;;;5067542;28;20075;-60
2023/08/24 03:28:25;;;;;;;25.30;14.23;;;;;;;;;;5071884;28;20101;-60
2023/08/24 03:30:52;;;;;;;28.90;15.23;;;;;;;;;;5070875;28;20259;-61
2023/08/24 03:33:19;;;;;;;26.70;15.80;;;;;;;;;;5054439;28;20402;-60
2023/08/24 03:35:45;;;;;;;27.30;14.67;;;;;;;;;;5049960;28;20041;-60
2023/08/24 03:38:11;;;;;;;24.23;14.70;;;;;;;;;;5050289;28;20503;-61
2023/08/24 03:40:37;;;;;;;32.83;16.97;;;;;;;;;;5050006;28;20052;-60
2023/08/24 03:43:03;;;;;;;24.57;14.50;;;;;;;;;;5050250;28;20144;-60
2023/08/24 03:45:30;;;;;;;30.20;15.20;;;;;;;;;;5050555;28;20455;-60
2023/08/24 03:47:56;;;;;;;27.63;16.97;;;;;;;;;;5050674;28;20562;-60
2023/08/24 03:50:26;;;;;;;29.30;16.87;;;;;;;;;;5050791;28;20053;-60
2023/08/24 03:52:54;;;;;;;29.10;16.50;;;;;;;;;;5050089;28;20095;-60
2023/08/24 03:55:20;;;;;;;27.87;16.47;;;;;;;;;;5053301;28;20103;-60
2023/08/24 03:57:46;;;;;;;30.73;16.40;;;;;;;;;;5060353;28;20380;-60
2023/08/24 04:00:12;;;;;;;28.67;15.97;;;;;;;;;;5050115;28;20041;-60
2023/08/24 04:02:39;;;;;;;33.00;17.20;;;;;;;;;;5050529;28;20045;-60
2023/08/24 04:05:05;;;;;;;34.40;18.13;;;;;;;;;;5050030;28;20049;-60
2023/08/24 04:07:31;;;;;;;36.57;19.47;;;;;;;;;;5050288;28;20124;-60
2023/08/24 04:09:57;;;;;;;29.43;17.80;;;;;;;;;;5050512;28;20056;-60
2023/08/24 04:12:23;;;;;;;31.27;17.63;;;;;;;;;;5050091;28;20052;-60
2023/08/24 04:14:49;;;;;;;28.90;17.23;;;;;;;;;;5050210;28;20048;-60
2023/08/24 04:17:15;;;;;;;35.17;17.70;;;;;;;;;;5048870;28;20056;-60
2023/08/24 04:19:41;;;;;;;32.40;17.00;;;;;;;;;;5049817;28;20045;-59
2023/08/24 04:22:07;;;;;;;33.67;17.07;;;;;;;;;;5064780;28;20059;-60
2023/08/24 04:24:33;;;;;;;35.20;18.07;;;;;;;;;;5070140;28;20051;-60
2023/08/24 04:26:59;;;;;;;36.27;19.87;;;;;;;;;;5069749;28;20041;-60
2023/08/24 04:29:25;;;;;;;36.33;18.90;;;;;;;;;;5070207;28;20580;-60
2023/08/24 04:31:51;;;;;;;30.13;18.33;;;;;;;;;;5069958;28;20044;-60
2023/08/24 04:34:17;;;;;;;37.30;19.70;;;;;;;;;;5069137;28;20222;-62
2023/08/24 04:36:43;;;;;;;38.13;21.53;;;;;;;;;;5069689;28;20052;-63
2023/08/24 04:39:10;;;;;;;44.23;21.77;;;;;;;;;;5069950;28;20044;-62
2023/08/24 04:41:36;;;;;;;41.80;21.97;;;;;;;;;;5051466;28;20471;-62
2023/08/24 04:44:02;;;;;;;42.00;19.93;;;;;;;;;;5049758;28;20079;-62
2023/08/24 04:46:28;;;;;;;45.13;21.10;;;;;;;;;;5049327;28;20041;-62
2023/08/24 04:48:54;;;;;;;39.77;21.67;;;;;;;;;;5049469;28;20041;-62
2023/08/24 04:51:20;;;;;;;46.17;21.37;;;;;;;;;;5048706;28;20043;-62
2023/08/24 04:53:46;;;;;;;36.00;20.40;;;;;;;;;;5064817;28;20076;-62
2023/08/24 04:56:12;;;;;;;42.07;21.47;;;;;;;;;;5049361;28;20122;-63
2023/08/24 04:58:38;;;;;;;46.93;22.03;;;;;;;;;;5050823;28;20048;-62
2023/08/24 05:01:04;;;;;;;44.10;21.63;;;;;;;;;;5049192;28;20168;-62
2023/08/24 05:03:30;;;;;;;34.03;20.43;;;;;;;;;;5049064;28;20224;-62
2023/08/24 05:05:56;;;;;;;34.00;18.90;;;;;;;;;;5048892;28;20037;-63
2023/08/24 05:08:22;;;;;;;28.53;17.83;;;;;;;;;;5060314;28;20048;-62
2023/08/24 05:10:48;;;;;;;43.00;20.40;;;;;;;;;;5051731;28;20043;-63
2023/08/24 05:13:14;;;;;;;40.70;20.57;;;;;;;;;;5061113;28;20106;-62
2023/08/24 05:15:40;;;;;;;38.70;21.23;;;;;;;;;;5048661;28;20143;-63
2023/08/24 05:18:06;;;;;;;37.23;20.57;;;;;;;;;;5048182;28;20048;-63
2023/08/24 05:20:33;;;;;;;32.53;18.77;;;;;;;;;;5048438;28;20620;-62
2023/08/24 05:22:59;;;;;;;32.07;18.50;;;;;;;;;;5048477;28;20098;-62
2023/08/24 05:25:25;;;;;;;32.63;16.23;;;;;;;;;;5049488;28;20041;-62
2023/08/24 05:27:51;;;;;;;34.10;18.60;;;;;;;;;;5065495;28;20808;-62
2023/08/24 05:30:17;;;;;;;28.33;16.63;;;;;;;;;;5064213;28;20048;-62
2023/08/24 05:32:43;;;;;;;28.27;17.47;;;;;;;;;;5060884;28;20103;-60
2023/08/24 05:35:10;;;;;;;37.83;19.17;;;;;;;;;;5064274;28;20066;-59
2023/08/24 05:37:36;;;;;;;22.53;15.13;;;;;;;;;;5066495;28;20080;-60
2023/08/24 05:40:02;;;;;;;26.73;16.93;;;;;;;;;;5067975;28;20079;-60
2023/08/24 05:42:29;;;;;;;31.20;16.73;;;;;;;;;;5068464;28;20082;-60
2023/08/24 05:44:55;;;;;;;27.90;17.50;;;;;;;;;;5053842;28;20045;-60
2023/08/24 05:47:21;;;;;;;25.37;15.93;;;;;;;;;;5047963;28;20144;-60
2023/08/24 05:49:47;;;;;;;29.67;17.63;;;;;;;;;;5048217;28;20182;-59
2023/08/24 05:52:13;;;;;;;23.70;15.03;;;;;;;;;;5047962;28;20455;-60
2023/08/24 05:54:39;;;;;;;26.80;15.17;;;;;;;;;;5047791;28;20045;-60
2023/08/24 05:57:05;;;;;;;32.40;18.20;;;;;;;;;;5048040;28;20049;-60
2023/08/24 05:59:33;;;;;;;23.37;14.27;;;;;;;;;;5047759;28;20056;-60
2023/08/24 06:01:58;;;;;;;21.07;14.07;;;;;;;;;;5048157;28;20041;-63
2023/08/24 06:04:24;;;;;;;19.00;12.90;;;;;;;;;;5047986;28;20495;-62
2023/08/24 06:06:51;;;;;;;23.53;13.07;;;;;;;;;;5048149;28;20036;-62
2023/08/24 06:09:17;;;;;;;20.40;13.00;;;;;;;;;;5048271;28;20055;-62
2023/08/24 06:11:43;;;;;;;19.50;12.53;;;;;;;;;;5047144;28;20049;-59
2023/08/24 06:14:09;;;;;;;19.80;11.90;;;;;;;;;;5048073;28;20052;-59
2023/08/24 06:16:35;;;;;;;27.10;12.43;;;;;;;;;;5047798;28;20052;-60
2023/08/24 06:19:01;;;;;;;20.63;12.93;;;;;;;;;;5047766;28;20503;-60
2023/08/24 06:21:27;;;;;;;19.80;12.97;;;;;;;;;;5047812;28;20041;-60
2023/08/24 06:23:53;;;;;;;23.07;11.53;;;;;;;;;;5047362;28;20049;-60
2023/08/24 06:26:19;;;;;;;23.13;13.30;;;;;;;;;;5047310;28;20056;-59
2023/08/24 06:28:45;;;;;;;21.90;13.93;;;;;;;;;;5048095;28;20041;-62
2023/08/24 06:31:11;;;;;;;17.47;11.97;;;;;;;;;;5047752;28;20171;-62
2023/08/24 06:33:39;;;;;;;21.07;12.77;;;;;;;;;;5047399;28;20128;-60
2023/08/24 06:36:05;;;;;;;19.10;11.87;;;;;;;;;;5047556;28;20384;-62
2023/08/24 06:38:31;;;;;;;21.00;13.73;;;;;;;;;;5047463;28;20157;-62
2023/08/24 06:40:58;;;;;;;21.00;13.57;;;;;;;;;;5049600;28;20127;-62
2023/08/24 06:43:24;;;;;;;22.00;12.23;;;;;;;;;;5051623;28;20056;-59
2023/08/24 06:45:50;;;;;;;26.00;14.63;;;;;;;;;;5051276;28;20484;-59
2023/08/24 06:48:17;;;;;;;18.40;12.23;;;;;;;;;;5051664;28;20056;-60
2023/08/24 06:50:43;;;;;;;20.60;13.77;;;;;;;;;;5051368;28;20423;-60
2023/08/24 06:53:09;;;;;;;20.13;13.13;;;;;;;;;;5051282;28;20041;-60
2023/08/24 06:55:36;;;;;;;22.13;13.03;;;;;;;;;;5051920;28;20479;-60
2023/08/24 06:58:05;;;;;;;16.97;12.40;;;;;;;;;;5050070;28;20514;-60
2023/08/24 07:00:31;;;;;;;21.00;12.40;;;;;;;;;;5051747;28;20053;-60
2023/08/24 07:02:59;;;;;;;16.33;12.50;;;;;;;;;;5051088;28;20625;-60
2023/08/24 07:05:26;;;;;;;17.00;11.40;;;;;;;;;;5051053;28;20098;-60
2023/08/24 07:07:52;;;;;;;18.53;10.90;;;;;;;;;;5050806;28;20448;-60
2023/08/24 07:10:18;;;;;;;15.47;12.37;;;;;;;;;;5051103;28;20068;-60
2023/08/24 07:12:45;;;;;;;14.80;10.67;;;;;;;;;;5050786;28;20053;-60
2023/08/24 07:15:12;;;;;;;15.63;10.47;;;;;;;;;;5051249;28;20049;-60
2023/08/24 07:17:37;;;;;;;16.03;10.77;;;;;;;;;;5050942;28;20052;-60
2023/08/24 07:20:08;;;;;;;16.83;10.57;;;;;;;;;;5050680;28;20041;-60
2023/08/24 07:22:34;;;;;;;13.33;9.63;;;;;;;;;;5050408;28;20057;-60
2023/08/24 07:25:01;;;;;;;13.13;10.50;;;;;;;;;;5050634;28;20110;-61
2023/08/24 07:27:28;;;;;;;13.70;9.60;;;;;;;;;;5050701;28;20040;-61
2023/08/24 07:29:54;;;;;;;14.73;10.40;;;;;;;;;;5050761;28;20060;-61
2023/08/24 07:32:20;;;;;;;16.97;10.07;;;;;;;;;;5050543;28;20041;-62
2023/08/24 07:34:46;;;;;;;14.37;9.33;;;;;;;;;;5050362;28;20041;-62
2023/08/24 07:37:12;;;;;;;16.80;9.93;;;;;;;;;;5050868;28;20416;-62
2023/08/24 07:39:38;;;;;;;15.60;8.93;;;;;;;;;;5050193;28;20110;-62
2023/08/24 07:42:04;;;;;;;12.37;8.87;;;;;;;;;;5050635;28;20053;-60
2023/08/24 07:44:30;;;;;;;16.73;9.40;;;;;;;;;;5050652;28;20053;-60
2023/08/24 07:46:56;;;;;;;14.30;9.20;;;;;;;;;;5050108;28;20403;-60
2023/08/24 07:49:22;;;;;;;13.47;9.07;;;;;;;;;;5050222;28;20128;-60
2023/08/24 07:51:48;;;;;;;12.93;9.50;;;;;;;;;;5051231;28;20601;-60
2023/08/24 07:54:14;;;;;;;14.77;8.77;;;;;;;;;;5057462;28;20056;-60
2023/08/24 07:56:40;;;;;;;15.23;9.27;;;;;;;;;;5070504;28;20048;-60
2023/08/24 07:59:06;;;;;;;10.90;8.07;;;;;;;;;;5057415;28;20419;-60
2023/08/24 08:01:33;;;;;;;13.73;9.23;;;;;;;;;;5050267;28;20068;-60
2023/08/24 08:04:00;;;;;;;13.20;8.97;;;;;;;;;;5049996;28;20246;-60
2023/08/24 08:06:26;;;;;;;16.37;8.93;;;;;;;;;;5050422;28;20056;-60
2023/08/24 08:08:52;;;;;;;14.53;8.87;;;;;;;;;;5051328;28;20041;-61
2023/08/24 08:11:19;;;;;;;13.63;8.73;;;;;;;;;;5049715;28;20553;-61
2023/08/24 08:13:45;;;;;;;13.30;8.07;;;;;;;;;;5049560;28;20167;-60
2023/08/24 08:16:11;;;;;;;13.07;7.77;;;;;;;;;;5049915;28;20041;-60
2023/08/24 08:18:37;;;;;;;10.13;7.07;;;;;;;;;;5050493;28;20457;-60
2023/08/24 08:21:11;;;;;;;11.90;6.53;;;;;;;;;;5061588;28;20076;-60
2023/08/24 08:23:37;;;;;;;11.60;6.83;;;;;;;;;;5049964;28;20084;-60
2023/08/24 08:26:03;;;;;;;12.93;6.90;;;;;;;;;;5066463;28;20067;-61
2023/08/24 08:28:29;;;;;;;10.37;7.37;;;;;;;;;;5069377;28;20494;-60
2023/08/24 08:30:55;;;;;;;9.57;7.43;;;;;;;;;;5063933;28;20045;-61
2023/08/24 08:33:21;;;;;;;13.93;6.47;;;;;;;;;;5062156;28;20063;-61
2023/08/24 08:35:47;;;;;;;12.67;7.17;;;;;;;;;;5066153;28;20527;-61
2023/08/24 08:38:13;;;;;;;7.90;6.40;;;;;;;;;;5049035;28;20049;-61
2023/08/24 08:40:41;;;;;;;10.20;6.97;;;;;;;;;;5068780;28;20063;-61
2023/08/24 08:43:07;;;;;;;12.30;7.17;;;;;;;;;;5069637;28;20044;-61
2023/08/24 08:45:33;;;;;;;12.00;7.38;;;;;;;;;;5068073;28;20040;-61
2023/08/24 08:48:03;;;;;;;11.35;7.40;;;;;;;;;;5055504;28;20040;-60
2023/08/24 08:50:29;;;;;;;10.88;7.00;;;;;;;;;;5048450;28;20049;-61
2023/08/24 08:52:56;;;;;;;13.68;7.47;;;;;;;;;;5049404;28;20578;-61
2023/08/24 08:55:22;;;;;;;9.02;6.72;;;;;;;;;;5055397;28;20036;-61
2023/08/24 08:57:49;;;;;;;11.77;6.53;;;;;;;;;;5067447;28;20153;-61
2023/08/24 09:00:16;;;;;;;8.70;6.65;;;;;;;;;;5067081;28;20476;-60
2023/08/24 09:02:46;;;;;;;10.68;6.13;;;;;;;;;;5066023;28;20141;-60
2023/08/24 09:05:12;;;;;;;9.23;7.18;;;;;;;;;;5066227;28;20094;-60
2023/08/24 09:07:41;;;;;;;11.20;7.07;;;;;;;;;;5066137;28;20414;-61
2023/08/24 09:10:08;;;;;;;8.48;6.97;;;;;;;;;;5048463;28;20045;-61
2023/08/24 09:12:34;;;;;;;11.85;7.50;;;;;;;;;;5048804;28;20053;-60
2023/08/24 09:15:00;;;;;;;9.00;7.30;;;;;;;;;;5049802;28;20052;-61
2023/08/24 09:17:26;;;;;;;9.75;6.22;;;;;;;;;;5049852;28;20041;-60
2023/08/24 09:19:57;;;;;;;7.22;6.43;;;;;;;;;;5056891;28;20502;-60
2023/08/24 09:22:23;;;;;;;10.20;6.13;;;;;;;;;;5068900;28;20129;-60
2023/08/24 09:24:54;;;;;;;10.60;6.50;;;;;;;;;;5055935;28;20067;-60
2023/08/24 09:27:21;;;;;;;11.70;6.65;;;;;;;;;;5049586;28;20048;-61
2023/08/24 09:29:50;;;;;;;8.07;6.50;;;;;;;;;;5053293;28;20048;-61
2023/08/24 09:32:22;;;;;;;9.75;6.68;;;;;;;;;;5068512;28;20056;-61
2023/08/24 09:34:48;;;;;;;9.27;6.88;;;;;;;;;;5068127;28;20048;-60
2023/08/24 09:37:15;;;;;;;10.38;6.68;;;;;;;;;;5068839;28;20052;-61
2023/08/24 09:39:41;;;;;;;11.95;6.95;;;;;;;;;;5068301;28;20155;-60
2023/08/24 09:42:07;;;;;;;11.40;6.70;;;;;;;;;;5068541;28;20041;-61
2023/08/24 09:44:33;;;;;;;12.13;6.43;;;;;;;;;;5067798;28;20044;-60
2023/08/24 09:46:59;;;;;;;13.18;8.32;;;;;;;;;;5052243;28;20094;-61
2023/08/24 09:49:28;;;;;;;11.77;7.15;;;;;;;;;;5052966;28;20036;-60
2023/08/24 09:51:59;;;;;;;13.18;7.22;;;;;;;;;;5065924;28;20129;-60
2023/08/24 09:54:27;;;;;;;10.82;7.10;;;;;;;;;;5058892;28;20082;-61
2023/08/24 09:56:56;;;;;;;12.18;7.10;;;;;;;;;;5067696;28;20075;-61
2023/08/24 09:59:24;;;;;;;10.40;6.95;;;;;;;;;;5068071;28;20295;-61
2023/08/24 10:01:51;;;;;;;12.00;8.02;;;;;;;;;;5049653;28;20139;-61
2023/08/24 10:04:22;;;;;;;10.57;7.47;;;;;;;;;;5047730;28;20416;-60
2023/08/24 10:06:50;;;;;;;13.25;7.50;;;;;;;;;;5047652;28;20043;-65
2023/08/24 10:09:21;;;;;;;11.93;7.78;;;;;;;;;;5052314;28;20090;-61
2023/08/24 10:11:50;;;;;;;12.00;7.25;;;;;;;;;;5063094;28;20534;-62
2023/08/24 10:14:21;;;;;;;15.35;7.78;;;;;;;;;;5048023;28;20057;-61
2023/08/24 10:16:47;;;;;;;10.30;8.32;;;;;;;;;;5051628;28;20147;-61
2023/08/24 10:19:14;;;;;;;11.32;7.55;;;;;;;;;;5057798;28;20040;-62
2023/08/24 10:21:41;;;;;;;9.50;7.38;;;;;;;;;;5067855;28;20041;-62
2023/08/24 10:24:09;;;;;;;9.80;7.80;;;;;;;;;;5066575;28;20094;-62
2023/08/24 10:26:36;;;;;;;11.20;7.40;;;;;;;;;;5048527;28;20067;-62
2023/08/24 10:29:03;;;;;;;13.82;8.20;;;;;;;;;;5049342;28;20080;-62
2023/08/24 10:31:30;;;;;;;9.90;7.95;;;;;;;;;;5061768;28;20455;-62
2023/08/24 10:33:56;;;;;;;9.77;6.95;;;;;;;;;;5054701;28;20073;-62
2023/08/24 10:36:23;;;;;;;10.73;7.57;;;;;;;;;;5048050;28;20052;-62
2023/08/24 10:38:49;;;;;;;14.00;8.80;;;;;;;;;;5047988;28;20049;-62
2023/08/24 10:41:15;;;;;;;9.77;7.18;;;;;;;;;;5047477;28;20087;-62
2023/08/24 10:43:42;;;;;;;10.50;6.78;;;;;;;;;;5047449;28;20088;-62
2023/08/24 10:46:16;;;;;;;15.00;7.25;;;;;;;;;;5048656;28;20068;-62
2023/08/24 10:48:42;;;;;;;14.07;7.30;;;;;;;;;;5067770;28;20076;-63
2023/08/24 10:51:17;;;;;;;13.73;7.78;;;;;;;;;;5066752;28;20465;-62
2023/08/24 10:53:46;;;;;;;9.55;7.20;;;;;;;;;;5067335;28;20053;-62
2023/08/24 10:56:13;;;;;;;9.48;7.72;;;;;;;;;;5067004;28;20128;-62
2023/08/24 10:58:39;;;;;;;12.95;7.15;;;;;;;;;;5067434;28;20387;-62
2023/08/24 11:01:05;;;;;;;10.98;7.47;;;;;;;;;;5066039;28;20040;-62
2023/08/24 11:03:32;;;;;;;9.77;7.35;;;;;;;;;;5067255;28;20044;-62
2023/08/24 11:05:58;;;;;;;8.93;6.97;;;;;;;;;;5064985;28;20063;-62
2023/08/24 11:08:44;;;;;;;10.25;6.80;;;;;;;;;;5062260;28;20032;-62
2023/08/24 11:11:20;;;;;;;10.85;6.43;;;;;;;;;;5047420;28;20455;-62
2023/08/24 11:14:05;;;;;;;11.43;6.75;;;;;;;;;;5046824;28;20139;-62
2023/08/24 11:16:44;;;;;;;10.73;7.15;;;;;;;;;;5046381;28;20067;-62
2023/08/24 11:19:14;;;;;;;10.55;6.63;;;;;;;;;;5047395;28;20041;-62
2023/08/24 11:21:40;;;;;;;10.27;7.07;;;;;;;;;;5047062;28;20045;-62
2023/08/24 11:24:07;;;;;;;10.25;7.50;;;;;;;;;;5049200;28;20046;-62
2023/08/24 11:26:34;;;;;;;11.18;7.68;;;;;;;;;;5047869;28;20052;-63
2023/08/24 11:29:00;;;;;;;10.73;7.78;;;;;;;;;;5050621;28;20063;-62
2023/08/24 11:31:26;;;;;;;14.13;7.03;;;;;;;;;;5063173;28;20041;-62
2023/08/24 11:33:56;;;;;;;8.73;7.40;;;;;;;;;;5050816;28;20033;-62
2023/08/24 11:36:25;;;;;;;17.60;8.25;;;;;;;;;;5050012;28;20123;-62
2023/08/24 11:38:56;;;;;;;12.57;7.70;;;;;;;;;;5050510;28;20045;-62
2023/08/24 11:41:22;;;;;;;10.77;7.45;;;;;;;;;;5050415;28;20045;-62
2023/08/24 11:43:50;;;;;;;10.57;6.80;;;;;;;;;;5050108;28;20051;-62
2023/08/24 11:46:17;;;;;;;10.90;7.82;;;;;;;;;;5050401;28;20045;-62
2023/08/24 11:48:43;;;;;;;11.20;7.30;;;;;;;;;;5049742;28;20124;-62
2023/08/24 11:51:12;;;;;;;9.73;7.70;;;;;;;;;;5050541;28;20037;-62
2023/08/24 11:53:39;;;;;;;10.82;7.57;;;;;;;;;;5050191;28;20446;-62
2023/08/24 11:56:05;;;;;;;11.20;7.30;;;;;;;;;;5050462;28;20052;-62
2023/08/24 11:58:32;;;;;;;11.52;8.18;;;;;;;;;;5050359;28;20041;-62
2023/08/24 12:00:58;;;;;;;14.43;8.02;;;;;;;;;;5049403;28;20094;-62
2023/08/24 12:03:24;;;;;;;10.23;8.02;;;;;;;;;;5050195;28;20462;-62
2023/08/24 12:05:50;;;;;;;10.43;6.82;;;;;;;;;;5062037;28;20069;-62
2023/08/24 12:08:16;;;;;;;11.02;7.65;;;;;;;;;;5051512;28;20420;-62
2023/08/24 12:10:43;;;;;;;7.85;6.90;;;;;;;;;;5051438;28;20067;-62
2023/08/24 12:13:10;;;;;;;13.48;7.38;;;;;;;;;;5049749;28;20178;-62
2023/08/24 12:15:36;;;;;;;11.00;7.65;;;;;;;;;;5050264;28;20906;-62
2023/08/24 12:18:08;;;;;;;10.35;7.05;;;;;;;;;;5049966;28;20055;-62
2023/08/24 12:20:35;;;;;;;15.50;7.68;;;;;;;;;;5050073;28;20044;-62
2023/08/24 12:23:01;;;;;;;10.80;7.47;;;;;;;;;;5049393;28;20087;-62
2023/08/24 12:25:27;;;;;;;9.68;6.80;;;;;;;;;;5053256;28;20072;-62
2023/08/24 12:27:53;;;;;;;13.30;6.70;;;;;;;;;;5060084;28;20072;-63
2023/08/24 12:30:20;;;;;;;11.00;7.10;;;;;;;;;;5051841;28;20052;-62
2023/08/24 12:32:47;;;;;;;10.77;7.22;;;;;;;;;;5064209;28;20053;-62
2023/08/24 12:35:14;;;;;;;10.90;7.38;;;;;;;;;;5059650;28;20048;-62
2023/08/24 12:37:40;;;;;;;10.05;6.78;;;;;;;;;;5068534;28;20044;-62
2023/08/24 12:40:07;;;;;;;12.35;8.00;;;;;;;;;;5069315;28;20102;-63
2023/08/24 12:42:33;;;;;;;10.73;7.05;;;;;;;;;;5069412;28;20056;-62
2023/08/24 12:44:59;;;;;;;8.43;6.38;;;;;;;;;;5062353;28;20051;-64
2023/08/24 12:47:25;;;;;;;8.75;6.47;;;;;;;;;;5066258;28;20123;-62
2023/08/24 12:49:54;;;;;;;11.70;8.00;;;;;;;;;;5069074;28;20472;-63
2023/08/24 12:52:20;;;;;;;9.35;6.75;;;;;;;;;;5069500;28;20045;-62
2023/08/24 12:54:46;;;;;;;8.15;6.75;;;;;;;;;;5069055;28;20094;-62
2023/08/24 12:57:12;;;;;;;9.80;6.78;;;;;;;;;;5068797;28;20318;-63
2023/08/24 12:59:38;;;;;;;8.85;6.47;;;;;;;;;;5068710;28;20051;-62
2023/08/24 13:02:04;;;;;;;10.93;6.30;;;;;;;;;;5068810;28;20418;-62
2023/08/24 13:04:32;;;;;;;8.65;6.63;;;;;;;;;;5060020;28;20044;-62
2023/08/24 13:06:58;;;;;;;9.93;6.35;;;;;;;;;;5068637;28;20453;-63
2023/08/24 13:09:24;;;;;;;9.02;7.13;;;;;;;;;;5068676;28;20124;-62
2023/08/24 13:11:50;;;;;;;12.32;6.72;;;;;;;;;;5068859;28;20470;-62
2023/08/24 13:14:16;;;;;;;10.35;6.40;;;;;;;;;;5066498;28;20062;-62
2023/08/24 13:16:42;;;;;;;10.65;6.80;;;;;;;;;;5048870;28;20384;-62
2023/08/24 13:19:08;;;;;;;9.88;6.93;;;;;;;;;;5048756;28;20036;-63
2023/08/24 13:21:34;;;;;;;8.95;6.78;;;;;;;;;;5049079;28;20506;-62
2023/08/24 13:24:00;;;;;;;10.85;6.32;;;;;;;;;;5048287;28;20049;-62
2023/08/24 13:26:26;;;;;;;8.50;6.75;;;;;;;;;;5049239;28;21477;-62
2023/08/24 13:28:52;;;;;;;9.02;7.05;;;;;;;;;;5049132;28;20110;-62
2023/08/24 13:31:18;;;;;;;10.30;6.75;;;;;;;;;;5048769;28;20041;-62
2023/08/24 13:33:45;;;;;;;8.25;5.95;;;;;;;;;;5048603;28;20424;-62
2023/08/24 13:36:11;;;;;;;7.13;6.03;;;;;;;;;;5048468;28;20048;-62
2023/08/24 13:38:37;;;;;;;8.70;6.30;;;;;;;;;;5048674;28;20044;-63
2023/08/24 13:41:06;;;;;;;12.35;6.45;;;;;;;;;;5050040;28;20048;-63
2023/08/24 13:43:32;;;;;;;11.15;6.65;;;;;;;;;;5058882;28;20144;-63
2023/08/24 13:45:58;;;;;;;12.35;6.70;;;;;;;;;;5048603;28;20136;-62
2023/08/24 13:48:24;;;;;;;10.55;5.35;;;;;;;;;;5048061;28;20136;-62
2023/08/24 13:50:54;;;;;;;9.57;5.40;;;;;;;;;;5065930;28;20437;-62
2023/08/24 13:53:20;;;;;;;10.48;5.57;;;;;;;;;;5064855;28;20048;-62
2023/08/24 13:55:46;;;;;;;8.68;6.13;;;;;;;;;;5066713;28;20051;-62
2023/08/24 13:58:12;;;;;;;8.85;6.20;;;;;;;;;;5066198;28;20548;-62
2023/08/24 14:00:38;;;;;;;10.23;5.82;;;;;;;;;;5066183;28;20066;-62
2023/08/24 14:03:04;;;;;;;9.52;6.00;;;;;;;;;;5062124;28;20524;-62
2023/08/24 14:05:30;;;;;;;12.25;6.68;;;;;;;;;;5065221;28;20041;-62
2023/08/24 14:07:56;;;;;;;10.30;7.32;;;;;;;;;;5067670;28;20520;-62
2023/08/24 14:10:22;;;;;;;9.32;7.22;;;;;;;;;;5064783;28;20051;-62
2023/08/24 14:12:48;;;;;;;10.60;6.97;;;;;;;;;;5067453;28;20060;-62
2023/08/24 14:15:14;;;;;;;7.68;6.88;;;;;;;;;;5066585;28;20040;-63
2023/08/24 14:17:40;;;;;;;10.68;6.03;;;;;;;;;;5061171;28;20051;-62
2023/08/24 14:20:08;;;;;;;9.60;6.93;;;;;;;;;;5065382;28;20090;-62
2023/08/24 14:22:34;;;;;;;8.27;6.65;;;;;;;;;;5067134;28;20127;-62